Pagrindinis puslapis
METAR-TAF:

METAR-TAF

Oro uostai :

Abilene, Teksasas, Jungtinės Amerikos Valstijos

platuma: 32-24-37N, ilguma: 099-40-54W, Aukštis: 545 m

Dabartinis oras

Ataskaita buvo paskelbta 51 minutes, ne 08:52 UTC
Vėjas 4 kt iš Pietryčių
Temperatūra 16°C
Drėgmė 45%
Slėgis 1020 hPa
Matomumas: 16.1 km
Giedras dangus

METAR: KABI 020852Z AUTO 14004KT 10SM CLR 16/04 A3013 RMK AO2 SLP179 T01560039 50001 $

Laikas: 04:43 (09:43 UTC)

Prognozė

Ataskaita buvo paskelbta 4 valandos ir 23 minutes, ne 05:20 UTC
Prognozė galioja nuo 02 metu 06 UTC su 03 metu 06 UTC
Vėjas 6 kt iš Pietryčių
Matomumas: 10 km
Giedras dangus
Nuo 02 metu 1800 UTC
Vėjas 8 kt iš Rytų/Pietryčių
Matomumas: 10 km
Giedras dangus
Nuo 03 metu 0500 UTC
Vėjas 6 kt iš Pietų/Pietryčių
Matomumas: 10 km
Giedras dangus

TAF: KABI 020520Z 0206/0306 14006KT P6SM SKC FM021800 11008KT P6SM SKC FM030500 15006KT P6SM SKC

Orai ataskaitas ir orų prognozės (METAR, TAF).

turimą stotys yra geltonos ir raudonos taškus žemėlapyje.

Perkelti pele per norėdami pamatyti stoties vardą.

Tada spustelėkite, norėdami matyti oro stebėjimo ir prognozės.

Norėdami pakeisti žemėlapį: spustelėkite ant žalios mygtukų su juodo kryžiaus žemyn,; žalią mygtuką su brūkšneliu, jei norite nutolinti; arba žalių rodyklių gretimoms žemėlapius.


METAR-TAF: